createdAt,value
2023-02-22T00:02:10.818Z,7.69
2023-02-22T00:05:16.881Z,7.68
2023-02-22T00:08:21.837Z,7.68
2023-02-22T00:11:25.107Z,7.76
2023-02-22T00:14:27.718Z,7.75
2023-02-22T00:17:30.701Z,7.74
2023-02-22T00:20:33.889Z,7.76
2023-02-22T00:23:39.900Z,7.83
2023-02-22T00:26:42.646Z,7.83
2023-02-22T00:29:46.560Z,7.86
2023-02-22T00:32:49.834Z,7.84
2023-02-22T00:35:52.741Z,7.82
2023-02-22T00:38:55.764Z,7.80
2023-02-22T00:41:58.765Z,7.75
2023-02-22T00:45:01.503Z,7.86
2023-02-22T00:48:05.956Z,7.84
2023-02-22T00:51:08.636Z,7.83
2023-02-22T00:54:11.972Z,7.83
2023-02-22T00:57:14.572Z,7.80
2023-02-22T01:00:26.957Z,7.75
2023-02-22T01:03:29.603Z,7.72
2023-02-22T01:06:32.961Z,7.65
2023-02-22T01:09:35.550Z,7.54
2023-02-22T01:12:39.247Z,7.60
2023-02-22T01:15:44.799Z,7.49
2023-02-22T01:18:47.834Z,7.47
2023-02-22T01:21:51.386Z,7.35
2023-02-22T01:24:55.290Z,7.37
2023-02-22T01:27:59.549Z,7.38
2023-02-22T01:31:03.353Z,7.41
2023-02-22T01:34:06.087Z,7.44
2023-02-22T01:37:08.988Z,7.47
2023-02-22T01:40:23.912Z,7.47
2023-02-22T01:43:30.354Z,7.49
2023-02-22T01:46:32.860Z,7.51
2023-02-22T01:49:43.833Z,7.49
2023-02-22T01:52:46.371Z,7.48
2023-02-22T01:55:50.361Z,7.45
2023-02-22T01:59:02.111Z,7.48
2023-02-22T02:02:05.408Z,7.51
2023-02-22T02:05:08.961Z,7.49
2023-02-22T02:08:53.066Z,7.47
2023-02-22T02:12:00.647Z,7.44
2023-02-22T02:15:22.203Z,7.45
2023-02-22T02:18:26.822Z,7.43
2023-02-22T02:22:04.852Z,7.42
2023-02-22T02:25:22.325Z,7.45
2023-02-22T02:28:43.544Z,7.44
2023-02-22T02:32:01.556Z,7.46
2023-02-22T02:35:21.513Z,7.43
2023-02-22T02:38:39.785Z,7.29
2023-02-22T02:41:48.097Z,7.28
2023-02-22T02:45:05.027Z,7.24
2023-02-22T02:48:09.996Z,7.16
2023-02-22T02:51:15.566Z,7.03
2023-02-22T02:54:19.060Z,6.95
2023-02-22T02:57:22.005Z,6.86
2023-02-22T03:00:29.863Z,6.75
2023-02-22T03:03:47.753Z,6.68
2023-02-22T03:07:05.918Z,6.63
2023-02-22T03:10:30.612Z,6.57
2023-02-22T03:14:01.702Z,6.57
2023-02-22T03:17:24.030Z,6.56
2023-02-22T03:20:36.244Z,6.40
2023-02-22T03:23:47.963Z,6.46
2023-02-22T03:26:59.261Z,6.47
2023-02-22T03:30:07.127Z,6.45
2023-02-22T03:33:15.629Z,6.32
2023-02-22T03:36:33.945Z,6.42
2023-02-22T03:39:37.782Z,6.31
2023-02-22T03:42:46.299Z,6.32
2023-02-22T03:45:50.922Z,6.23
2023-02-22T03:49:09.123Z,6.18
2023-02-22T03:52:12.883Z,6.09
2023-02-22T03:55:17.779Z,6.10
2023-02-22T03:58:22.286Z,6.08
2023-02-22T04:01:25.253Z,6.10
2023-02-22T04:04:28.424Z,6.07
2023-02-22T04:07:31.243Z,6.08
2023-02-22T04:10:38.003Z,6.08
2023-02-22T04:13:40.756Z,6.04
2023-02-22T04:16:43.658Z,5.95
2023-02-22T04:19:46.477Z,5.96
2023-02-22T04:22:53.466Z,5.89
2023-02-22T04:25:56.254Z,5.79
2023-02-22T04:28:59.473Z,5.73
2023-02-22T04:32:03.016Z,5.69
2023-02-22T04:35:06.784Z,5.63
2023-02-22T04:38:12.468Z,5.61
2023-02-22T04:41:18.410Z,5.55
2023-02-22T04:44:21.349Z,5.46
2023-02-22T04:47:24.195Z,5.41
2023-02-22T04:50:28.242Z,5.44
2023-02-22T04:53:32.169Z,5.43
2023-02-22T04:56:35.205Z,5.42
2023-02-22T04:59:38.153Z,5.45
2023-02-22T05:02:41.148Z,5.46
2023-02-22T05:05:44.067Z,5.46
2023-02-22T05:08:46.964Z,5.43
2023-02-22T05:11:50.127Z,5.43
2023-02-22T05:14:53.152Z,5.44
2023-02-22T05:17:55.943Z,5.46
2023-02-22T05:20:59.271Z,5.39
2023-02-22T05:24:02.742Z,5.35
2023-02-22T05:27:05.343Z,5.27
2023-02-22T05:30:10.453Z,5.18
2023-02-22T05:33:20.355Z,5.11
2023-02-22T05:36:23.300Z,5.14
2023-02-22T05:39:25.862Z,5.13
2023-02-22T05:42:28.730Z,5.15
2023-02-22T05:45:31.371Z,5.12
2023-02-22T05:48:34.472Z,5.08
2023-02-22T05:51:36.991Z,5.10
2023-02-22T05:54:42.507Z,5.09
2023-02-22T05:57:45.236Z,5.08
2023-02-22T06:00:48.947Z,5.09
2023-02-22T06:03:52.813Z,5.12
2023-02-22T06:06:55.332Z,5.12
2023-02-22T06:09:58.232Z,5.14
2023-02-22T06:13:01.959Z,5.18
2023-02-22T06:16:05.725Z,5.24
2023-02-22T06:19:08.504Z,5.28
2023-02-22T06:22:19.686Z,5.31
2023-02-22T06:25:24.250Z,5.39
2023-02-22T06:28:27.338Z,5.96
2023-02-22T06:31:29.920Z,5.80
2023-02-22T06:34:32.799Z,5.69
2023-02-22T06:37:35.639Z,5.66
2023-02-22T06:40:38.933Z,5.43
2023-02-22T06:43:41.650Z,5.52
2023-02-22T06:46:53.843Z,6.39
2023-02-22T06:49:58.142Z,6.15
2023-02-22T06:53:01.063Z,6.00
2023-02-22T06:56:03.974Z,5.93
2023-02-22T06:59:06.855Z,5.76
2023-02-22T07:02:12.508Z,5.92
2023-02-22T07:05:17.922Z,5.96
2023-02-22T07:08:21.082Z,6.01
2023-02-22T07:11:25.189Z,6.11
2023-02-22T07:14:28.099Z,6.27
2023-02-22T07:17:31.035Z,6.45
2023-02-22T07:20:33.953Z,6.69
2023-02-22T07:23:37.057Z,6.93
2023-02-22T07:26:41.332Z,7.01
2023-02-22T07:29:44.410Z,7.06
2023-02-22T07:32:47.555Z,7.09
2023-02-22T07:35:51.354Z,7.10
2023-02-22T07:38:53.883Z,7.09
2023-02-22T07:41:56.879Z,7.01
2023-02-22T07:44:59.531Z,7.00
2023-02-22T07:48:04.253Z,6.94
2023-02-22T07:51:07.353Z,6.96
2023-02-22T07:54:10.295Z,7.10
2023-02-22T07:57:13.999Z,7.34
2023-02-22T08:00:24.361Z,7.49
2023-02-22T08:03:27.461Z,7.77
2023-02-22T08:06:30.158Z,7.90
2023-02-22T08:09:33.324Z,8.06
2023-02-22T08:12:37.482Z,8.29
2023-02-22T08:15:41.807Z,8.42
2023-02-22T08:18:44.593Z,8.63
2023-02-22T08:21:47.422Z,8.91
2023-02-22T08:24:54.259Z,9.12
2023-02-22T08:28:01.865Z,9.18
2023-02-22T08:31:07.723Z,9.30
2023-02-22T08:34:10.636Z,9.45
2023-02-22T08:37:13.940Z,9.67
2023-02-22T08:40:19.637Z,9.68
2023-02-22T08:43:22.652Z,9.82
2023-02-22T08:46:25.500Z,9.92
2023-02-22T08:49:28.070Z,9.80
2023-02-22T08:52:31.016Z,10.02
2023-02-22T08:55:35.831Z,10.14
2023-02-22T08:58:39.026Z,10.17
2023-02-22T09:01:41.693Z,10.31
2023-02-22T09:04:45.511Z,10.48
2023-02-22T09:07:48.623Z,10.69
2023-02-22T09:10:51.796Z,11.17
2023-02-22T09:13:54.420Z,11.44
2023-02-22T09:16:57.373Z,11.47
2023-02-22T09:20:00.444Z,11.87
2023-02-22T09:23:05.343Z,11.98
2023-02-22T09:26:09.253Z,12.11
2023-02-22T09:29:12.150Z,12.20
2023-02-22T09:32:18.063Z,12.47
2023-02-22T09:35:27.129Z,12.53
2023-02-22T09:38:30.339Z,12.65
2023-02-22T09:41:43.744Z,13.21
2023-02-22T09:44:48.123Z,13.25
2023-02-22T09:48:01.294Z,13.69
2023-02-22T09:51:12.077Z,13.94
2023-02-22T09:54:37.399Z,14.20
2023-02-22T09:57:43.381Z,14.03
2023-02-22T10:00:48.595Z,14.38
2023-02-22T10:04:33.755Z,14.52
2023-02-22T10:07:41.237Z,14.66
2023-02-22T10:10:46.027Z,14.93
2023-02-22T10:13:51.578Z,15.12
2023-02-22T10:17:35.716Z,15.11
2023-02-22T10:21:18.379Z,14.62
2023-02-22T10:24:59.899Z,14.20
2023-02-22T10:28:26.798Z,13.77
2023-02-22T10:31:34.661Z,13.61
2023-02-22T10:34:40.919Z,13.58
2023-02-22T10:37:44.459Z,13.37
2023-02-22T10:41:01.383Z,13.25
2023-02-22T10:44:04.835Z,12.90
2023-02-22T10:47:10.338Z,12.65
2023-02-22T10:50:15.090Z,12.50
2023-02-22T10:53:17.994Z,12.39
2023-02-22T10:56:25.815Z,12.27
2023-02-22T10:59:33.157Z,12.20
2023-02-22T11:02:36.265Z,12.24
2023-02-22T11:05:40.463Z,12.09
2023-02-22T11:08:44.112Z,12.02
2023-02-22T11:11:49.053Z,11.94
2023-02-22T11:14:52.022Z,11.83
2023-02-22T11:17:57.465Z,11.66
2023-02-22T11:21:01.977Z,11.68
2023-02-22T11:24:10.392Z,11.15
2023-02-22T11:27:24.650Z,11.51
2023-02-22T11:30:32.783Z,11.55
2023-02-22T11:33:35.842Z,11.60
2023-02-22T11:36:41.287Z,11.60
2023-02-22T11:39:45.019Z,11.55
2023-02-22T11:42:48.459Z,11.58
2023-02-22T11:46:08.525Z,11.45
2023-02-22T11:49:13.311Z,11.36
2023-02-22T11:52:28.816Z,11.33
2023-02-22T11:55:43.034Z,11.36
2023-02-22T11:58:51.573Z,11.34
2023-02-22T12:02:03.154Z,11.16
2023-02-22T12:05:43.504Z,11.04
2023-02-22T12:09:01.593Z,11.05
2023-02-22T12:12:32.728Z,10.94
2023-02-22T12:15:44.473Z,10.87
2023-02-22T12:19:05.663Z,10.41
2023-02-22T12:22:23.357Z,10.81
2023-02-22T12:25:29.569Z,10.74
2023-02-22T12:28:59.514Z,10.73
2023-02-22T12:32:06.446Z,10.73
2023-02-22T12:35:22.385Z,10.67
2023-02-22T12:38:40.472Z,10.68
2023-02-22T12:41:45.977Z,10.56
2023-02-22T12:44:55.370Z,10.55
2023-02-22T12:48:19.890Z,10.52
2023-02-22T12:51:32.350Z,10.45
2023-02-22T12:55:05.641Z,10.43
2023-02-22T12:58:19.186Z,10.47
2023-02-22T13:01:24.247Z,10.48
2023-02-22T13:04:27.537Z,10.46
2023-02-22T13:07:56.884Z,10.43
2023-02-22T13:11:17.659Z,10.41
2023-02-22T13:14:20.424Z,10.45
2023-02-22T13:17:40.027Z,10.43
2023-02-22T13:20:47.795Z,10.43
2023-02-22T13:24:12.531Z,10.45
2023-02-22T13:27:26.358Z,10.48
2023-02-22T13:30:46.107Z,10.48
2023-02-22T13:34:03.924Z,10.50
2023-02-22T13:37:31.880Z,10.52
2023-02-22T13:40:43.879Z,10.49
2023-02-22T13:44:05.428Z,10.43
2023-02-22T13:47:26.839Z,10.46
2023-02-22T13:50:35.959Z,10.43
2023-02-22T13:53:44.221Z,10.46
2023-02-22T13:56:49.098Z,10.45
2023-02-22T14:00:23.515Z,10.47
2023-02-22T14:03:36.817Z,10.44
2023-02-22T14:06:41.710Z,10.41
2023-02-22T14:10:01.770Z,10.42
2023-02-22T14:13:06.063Z,10.38
2023-02-22T14:16:12.295Z,10.38
2023-02-22T14:19:23.788Z,10.34
2023-02-22T14:22:30.203Z,10.18
2023-02-22T14:25:37.562Z,10.28
2023-02-22T14:28:46.293Z,10.29
2023-02-22T14:31:51.688Z,10.28
2023-02-22T14:35:00.847Z,10.26
2023-02-22T14:38:05.017Z,10.24
2023-02-22T14:41:09.150Z,10.23
2023-02-22T14:44:13.711Z,10.24
2023-02-22T14:47:21.645Z,10.23
2023-02-22T14:50:37.869Z,10.22
2023-02-22T14:53:46.839Z,10.19
2023-02-22T14:57:15.297Z,10.17
2023-02-22T15:00:30.847Z,10.13
2023-02-22T15:03:37.883Z,10.07
2023-02-22T15:06:40.708Z,10.05
2023-02-22T15:09:46.632Z,10.07
2023-02-22T15:13:10.512Z,10.01
2023-02-22T15:16:14.258Z,9.95
2023-02-22T15:19:25.237Z,9.90
2023-02-22T15:22:35.494Z,9.81
2023-02-22T15:25:39.272Z,9.74
2023-02-22T15:28:42.796Z,9.68
2023-02-22T15:31:48.194Z,9.50
2023-02-22T15:34:51.035Z,9.55
2023-02-22T15:38:06.129Z,9.49
2023-02-22T15:41:21.808Z,9.46
2023-02-22T15:44:26.094Z,9.40
2023-02-22T15:47:31.960Z,9.39
2023-02-22T15:50:36.385Z,9.37
2023-02-22T15:53:49.878Z,9.33
2023-02-22T15:56:55.565Z,9.30
2023-02-22T15:59:58.209Z,9.24
2023-02-22T16:03:01.115Z,9.22
2023-02-22T16:06:09.047Z,9.17
2023-02-22T16:09:40.560Z,9.14
2023-02-22T16:12:43.552Z,9.16
2023-02-22T16:16:27.464Z,9.05
2023-02-22T16:19:40.198Z,9.01
2023-02-22T16:22:49.362Z,8.98
2023-02-22T16:26:07.513Z,8.95
2023-02-22T16:29:11.111Z,8.91
2023-02-22T16:32:15.639Z,8.84
2023-02-22T16:35:19.076Z,8.82
2023-02-22T16:38:23.659Z,8.81
2023-02-22T16:41:26.327Z,9.07
2023-02-22T16:44:29.769Z,8.89
2023-02-22T16:47:33.077Z,8.67
2023-02-22T16:50:36.810Z,8.71
2023-02-22T16:53:39.517Z,8.65
2023-02-22T16:56:42.622Z,8.57
2023-02-22T16:59:48.383Z,8.46
2023-02-22T17:02:51.822Z,8.42
2023-02-22T17:05:54.474Z,8.39
2023-02-22T17:08:58.006Z,8.32
2023-02-22T17:12:01.922Z,8.28
2023-02-22T17:15:05.087Z,8.28
2023-02-22T17:18:16.405Z,8.26
2023-02-22T17:21:20.678Z,8.23
2023-02-22T17:24:24.581Z,8.15
2023-02-22T17:27:27.819Z,8.12
2023-02-22T17:30:32.883Z,8.07
2023-02-22T17:33:37.246Z,8.01
2023-02-22T17:36:42.115Z,7.95
2023-02-22T17:39:46.039Z,7.94
2023-02-22T17:42:54.726Z,7.92
2023-02-22T17:45:57.774Z,7.87
2023-02-22T17:49:00.741Z,7.83
2023-02-22T17:52:06.295Z,7.79
2023-02-22T17:55:10.119Z,7.75
2023-02-22T17:58:16.761Z,7.68
2023-02-22T18:01:21.185Z,7.73
2023-02-22T18:04:24.721Z,7.73
2023-02-22T18:07:27.707Z,7.73
2023-02-22T18:10:30.948Z,7.68
2023-02-22T18:13:34.016Z,7.68
2023-02-22T18:16:39.953Z,7.65
2023-02-22T18:19:43.333Z,7.63
2023-02-22T18:22:46.597Z,7.58
2023-02-22T18:26:09.053Z,7.56
2023-02-22T18:29:12.473Z,7.53
2023-02-22T18:32:15.449Z,7.56
2023-02-22T18:35:18.703Z,7.91
2023-02-22T18:38:25.633Z,8.14
2023-02-22T18:41:29.641Z,7.94
2023-02-22T18:44:32.659Z,7.76
2023-02-22T18:47:41.998Z,7.63
2023-02-22T18:50:46.147Z,7.51
2023-02-22T18:53:50.945Z,7.47
2023-02-22T18:56:53.866Z,7.41
2023-02-22T18:59:57.051Z,7.36
2023-02-22T19:03:00.453Z,7.32
2023-02-22T19:06:08.679Z,7.25
2023-02-22T19:09:11.702Z,7.19
2023-02-22T19:12:16.983Z,7.16
2023-02-22T19:15:19.776Z,7.10
2023-02-22T19:18:23.709Z,7.12
2023-02-22T19:21:29.942Z,7.09
2023-02-22T19:24:36.680Z,7.06
2023-02-22T19:27:41.706Z,7.07
2023-02-22T19:30:45.012Z,7.09
2023-02-22T19:33:51.402Z,7.08
2023-02-22T19:36:56.021Z,7.04
2023-02-22T19:39:58.980Z,7.03
2023-02-22T19:43:02.427Z,7.02
2023-02-22T19:46:06.821Z,6.59
2023-02-22T19:49:10.068Z,6.97
2023-02-22T19:52:15.799Z,6.99
2023-02-22T19:55:19.048Z,6.89
2023-02-22T19:58:21.990Z,6.83
2023-02-22T20:01:29.952Z,6.74
2023-02-22T20:04:34.175Z,6.65
2023-02-22T20:07:37.625Z,6.56
2023-02-22T20:10:41.696Z,6.37
2023-02-22T20:13:44.817Z,6.44
2023-02-22T20:16:53.034Z,6.44
2023-02-22T20:19:55.577Z,6.42
2023-02-22T20:22:58.769Z,6.39
2023-02-22T20:26:01.778Z,6.38
2023-02-22T20:29:06.812Z,6.29
2023-02-22T20:32:14.824Z,6.27
2023-02-22T20:35:18.390Z,6.19
2023-02-22T20:38:21.307Z,6.12
2023-02-22T20:41:34.768Z,6.13
2023-02-22T20:44:37.731Z,6.00
2023-02-22T20:47:41.059Z,6.12
2023-02-22T20:50:44.109Z,6.11
2023-02-22T20:53:47.899Z,6.10
2023-02-22T20:56:52.786Z,6.08
2023-02-22T20:59:55.932Z,6.01
2023-02-22T21:02:58.881Z,6.06
2023-02-22T21:06:05.177Z,6.11
2023-02-22T21:09:12.906Z,6.22
2023-02-22T21:12:15.810Z,6.10
2023-02-22T21:15:20.324Z,6.29
2023-02-22T21:18:25.088Z,6.18
2023-02-22T21:21:28.676Z,6.13
2023-02-22T21:24:31.792Z,6.09
2023-02-22T21:27:34.939Z,6.09
2023-02-22T21:30:38.317Z,6.09
2023-02-22T21:33:42.248Z,6.11
2023-02-22T21:36:46.208Z,6.08
2023-02-22T21:39:49.202Z,6.01
2023-02-22T21:42:53.180Z,5.99
2023-02-22T21:45:55.819Z,5.98
2023-02-22T21:48:59.150Z,6.00
2023-02-22T21:52:01.733Z,5.96
2023-02-22T21:55:06.510Z,5.95
2023-02-22T21:58:09.554Z,5.95
2023-02-22T22:01:17.750Z,5.96
2023-02-22T22:04:23.434Z,5.94
2023-02-22T22:07:25.998Z,5.95
2023-02-22T22:10:33.284Z,5.99
2023-02-22T22:13:37.762Z,6.03
2023-02-22T22:16:40.804Z,6.06
2023-02-22T22:19:44.843Z,6.05
2023-02-22T22:22:47.994Z,6.05
2023-02-22T22:25:51.341Z,6.02
2023-02-22T22:28:58.183Z,6.00
2023-02-22T22:32:01.142Z,5.96
2023-02-22T22:35:05.912Z,5.91
2023-02-22T22:38:09.517Z,5.82
2023-02-22T22:41:13.672Z,5.90
2023-02-22T22:44:22.126Z,5.89
2023-02-22T22:47:25.209Z,5.83
2023-02-22T22:50:28.865Z,5.82
2023-02-22T22:53:33.374Z,5.80
2023-02-22T22:56:38.058Z,5.77
2023-02-22T22:59:41.010Z,5.75
2023-02-22T23:02:43.613Z,5.77
2023-02-22T23:05:47.121Z,5.77
2023-02-22T23:09:00.032Z,5.73
2023-02-22T23:12:16.759Z,5.75
2023-02-22T23:15:19.462Z,5.74
2023-02-22T23:18:22.364Z,5.74
2023-02-22T23:21:25.288Z,5.67
2023-02-22T23:24:28.440Z,5.60
2023-02-22T23:27:31.019Z,5.58
2023-02-22T23:30:33.917Z,5.58
2023-02-22T23:33:38.294Z,5.55
2023-02-22T23:36:44.415Z,5.52
2023-02-22T23:39:47.973Z,5.50
2023-02-22T23:42:54.583Z,5.44
2023-02-22T23:46:01.932Z,5.48
2023-02-22T23:49:05.591Z,5.50
2023-02-22T23:52:08.858Z,5.46
2023-02-22T23:55:12.623Z,5.42
2023-02-22T23:58:15.198Z,5.40
